createdAt,value
2016-05-18T00:00:32.916Z,1007.41
2016-05-18T00:01:32.918Z,1007.39
2016-05-18T00:02:32.922Z,1007.38
2016-05-18T00:03:32.924Z,1007.39
2016-05-18T00:04:32.942Z,1007.33
2016-05-18T00:05:32.945Z,1007.35
2016-05-18T00:06:32.947Z,1007.33
2016-05-18T00:07:33.122Z,1007.32
2016-05-18T00:08:32.952Z,1007.27
2016-05-18T00:09:32.971Z,1007.27
2016-05-18T00:10:32.974Z,1007.23
2016-05-18T00:11:32.977Z,1007.25
2016-05-18T00:12:32.979Z,1007.25
2016-05-18T00:13:32.998Z,1007.2
2016-05-18T00:14:33.001Z,1007.19
2016-05-18T00:15:33.003Z,1007.14
2016-05-18T00:16:33.006Z,1007.16
2016-05-18T00:17:33.009Z,1007.13
2016-05-18T00:18:33.012Z,1007.13
2016-05-18T00:19:33.029Z,1007.11
2016-05-18T00:20:33.032Z,1007.08
2016-05-18T00:21:33.034Z,1007.09
2016-05-18T00:22:33.053Z,1007.07
2016-05-18T00:23:33.056Z,1007.06
2016-05-18T00:24:33.058Z,1007.04
2016-05-18T00:25:33.062Z,1007.05
2016-05-18T00:26:33.064Z,1007.02
2016-05-18T00:27:33.081Z,1007.02
2016-05-18T00:28:33.084Z,1007.03
2016-05-18T00:29:33.087Z,1007.09
2016-05-18T00:30:33.090Z,1007.02
2016-05-18T00:31:33.124Z,1007.04
2016-05-18T00:32:33.096Z,1007.03
2016-05-18T00:33:33.114Z,1007.02
2016-05-18T00:34:33.116Z,1007
2016-05-18T00:35:33.119Z,1007.02
2016-05-18T00:36:33.122Z,1007.01
2016-05-18T00:37:33.140Z,1007
2016-05-18T00:38:33.144Z,1006.99
2016-05-18T00:39:33.146Z,1006.96
2016-05-18T00:40:33.148Z,1006.98
2016-05-18T00:41:33.167Z,1006.94
2016-05-18T00:42:33.169Z,1006.93
2016-05-18T00:43:33.171Z,1006.92
2016-05-18T00:44:33.175Z,1006.94
2016-05-18T00:45:33.177Z,1006.9
2016-05-18T00:46:33.196Z,1006.91
2016-05-18T00:47:33.198Z,1006.91
2016-05-18T00:48:33.201Z,1006.91
2016-05-18T00:49:33.203Z,1006.87
2016-05-18T00:50:33.207Z,1006.84
2016-05-18T00:51:33.225Z,1006.85
2016-05-18T00:52:33.228Z,1006.83
2016-05-18T00:53:33.246Z,1006.84
2016-05-18T00:54:33.233Z,1006.82
2016-05-18T00:55:33.251Z,1006.82
2016-05-18T00:56:33.253Z,1006.82
2016-05-18T00:57:33.256Z,1006.82
2016-05-18T00:58:33.259Z,1006.77
2016-05-18T00:59:33.262Z,1006.78
2016-05-18T01:00:33.280Z,1006.74
2016-05-18T01:01:33.283Z,1006.76
2016-05-18T01:02:33.286Z,1006.74
2016-05-18T01:03:33.288Z,1006.74
2016-05-18T01:04:33.291Z,1006.75
2016-05-18T01:05:33.309Z,1006.71
2016-05-18T01:06:33.312Z,1006.74
2016-05-18T01:07:33.580Z,1006.74
2016-05-18T01:08:33.317Z,1006.72
2016-05-18T01:09:33.336Z,1006.68
2016-05-18T01:10:33.338Z,1006.68
2016-05-18T01:11:33.341Z,1006.71
2016-05-18T01:12:33.343Z,1006.69
2016-05-18T01:13:33.347Z,1006.68
2016-05-18T01:14:33.349Z,1006.64
2016-05-18T01:15:33.367Z,1006.66
2016-05-18T01:16:33.370Z,1006.67
2016-05-18T01:17:33.373Z,1006.67
2016-05-18T01:18:33.376Z,1006.7
2016-05-18T01:19:33.393Z,1006.67
2016-05-18T01:20:33.397Z,1006.65
2016-05-18T01:21:33.399Z,1006.6
2016-05-18T01:22:33.402Z,1006.63
2016-05-18T01:23:33.404Z,1006.58
2016-05-18T01:24:33.422Z,1006.59
2016-05-18T01:25:33.426Z,1006.62
2016-05-18T01:26:33.428Z,1006.58
2016-05-18T01:27:33.431Z,1006.63
2016-05-18T01:28:33.450Z,1006.62
2016-05-18T01:29:33.452Z,1006.59
2016-05-18T01:30:33.455Z,1006.62
2016-05-18T01:31:33.457Z,1006.58
2016-05-18T01:32:33.461Z,1006.61
2016-05-18T01:33:33.478Z,1006.57
2016-05-18T01:34:33.481Z,1006.57
2016-05-18T01:35:33.483Z,1006.57
2016-05-18T01:36:33.486Z,1006.55
2016-05-18T01:37:33.489Z,1006.55
2016-05-18T01:38:33.538Z,1006.61
2016-05-18T01:39:33.525Z,1006.59
2016-05-18T01:40:33.513Z,1006.57
2016-05-18T01:41:33.516Z,1006.58
2016-05-18T01:42:33.533Z,1006.55
2016-05-18T01:43:33.536Z,1006.55
2016-05-18T01:44:33.539Z,1006.54
2016-05-18T01:45:33.541Z,1006.55
2016-05-18T01:46:33.544Z,1006.52
2016-05-18T01:47:33.547Z,1006.52
2016-05-18T01:48:33.566Z,1006.52
2016-05-18T01:49:33.568Z,1006.51
2016-05-18T01:50:33.571Z,1006.46
2016-05-18T01:51:33.573Z,1006.44
2016-05-18T01:52:33.592Z,1006.44
2016-05-18T01:53:33.595Z,1006.42
2016-05-18T01:54:33.597Z,1006.41
2016-05-18T01:55:33.600Z,1006.39
2016-05-18T01:56:33.603Z,1006.35
2016-05-18T01:57:33.606Z,1006.33
2016-05-18T01:58:33.608Z,1006.3
2016-05-18T01:59:33.626Z,1006.33
2016-05-18T02:00:33.629Z,1006.32
2016-05-18T02:01:33.631Z,1006.31
2016-05-18T02:02:33.651Z,1006.28
2016-05-18T02:03:33.653Z,1006.26
2016-05-18T02:04:33.655Z,1006.22
2016-05-18T02:05:33.658Z,1006.2
2016-05-18T02:06:33.661Z,1006.19
2016-05-18T02:07:33.679Z,1006.22
2016-05-18T02:08:33.682Z,1006.18
2016-05-18T02:09:33.685Z,1006.16
2016-05-18T02:10:33.687Z,1006.14
2016-05-18T02:11:33.691Z,1006.17
2016-05-18T02:12:33.708Z,1006.15
2016-05-18T02:13:33.710Z,1006.14
2016-05-18T02:14:33.714Z,1006.13
2016-05-18T02:15:33.716Z,1006.17
2016-05-18T02:16:33.719Z,1006.15
2016-05-18T02:17:33.737Z,1006.12
2016-05-18T02:18:33.740Z,1006.07
2016-05-18T02:19:33.743Z,1006.08
2016-05-18T02:20:33.760Z,1006.06
2016-05-18T02:21:33.763Z,1006.06
2016-05-18T02:22:33.766Z,1006.06
2016-05-18T02:23:33.769Z,1006.05
2016-05-18T02:24:33.771Z,1006.01
2016-05-18T02:25:33.774Z,1006.04
2016-05-18T02:26:33.793Z,1006
2016-05-18T02:27:33.795Z,1006
2016-05-18T02:28:33.798Z,1006.02
2016-05-18T02:29:33.800Z,1005.98
2016-05-18T02:30:33.804Z,1005.98
2016-05-18T02:31:33.822Z,1005.97
2016-05-18T02:32:33.825Z,1005.98
2016-05-18T02:33:33.827Z,1005.98
2016-05-18T02:34:33.830Z,1006
2016-05-18T02:35:33.833Z,1005.96
2016-05-18T02:36:33.851Z,1005.95
2016-05-18T02:37:33.853Z,1005.91
2016-05-18T02:38:33.872Z,1005.95
2016-05-18T02:39:33.859Z,1005.94
2016-05-18T02:40:33.877Z,1005.94
2016-05-18T02:41:33.880Z,1005.93
2016-05-18T02:42:33.883Z,1005.9
2016-05-18T02:43:33.885Z,1005.87
2016-05-18T02:44:33.888Z,1005.85
2016-05-18T02:45:33.906Z,1005.83
2016-05-18T02:46:33.910Z,1005.87
2016-05-18T02:47:33.912Z,1005.86
2016-05-18T02:48:33.915Z,1005.83
2016-05-18T02:49:33.932Z,1005.81
2016-05-18T02:50:33.921Z,1005.79
2016-05-18T02:51:33.954Z,1005.81
2016-05-18T02:52:34.346Z,1005.77
2016-05-18T02:53:33.944Z,1005.77
2016-05-18T02:54:33.946Z,1005.69
2016-05-18T02:55:33.964Z,1005.72
2016-05-18T02:56:33.967Z,1005.73
2016-05-18T02:57:33.970Z,1005.74
2016-05-18T02:58:33.973Z,1005.73
2016-05-18T02:59:33.975Z,1005.72
2016-05-18T03:00:33.978Z,1005.72
2016-05-18T03:01:33.996Z,1005.72
2016-05-18T03:02:33.998Z,1005.71
2016-05-18T03:03:34.001Z,1005.75
2016-05-18T03:04:34.004Z,1005.71
2016-05-18T03:05:34.023Z,1005.71
2016-05-18T03:06:34.025Z,1005.72
2016-05-18T03:07:34.028Z,1005.68
2016-05-18T03:08:34.030Z,1005.66
2016-05-18T03:09:34.033Z,1005.69
2016-05-18T03:10:34.036Z,1005.69
2016-05-18T03:11:34.054Z,1005.69
2016-05-18T03:12:34.058Z,1005.69
2016-05-18T03:13:34.060Z,1005.69
2016-05-18T03:14:34.062Z,1005.73
2016-05-18T03:15:34.065Z,1005.68
2016-05-18T03:16:34.083Z,1005.68
2016-05-18T03:17:34.086Z,1005.7
2016-05-18T03:18:34.088Z,1005.65
2016-05-18T03:19:34.092Z,1005.67
2016-05-18T03:20:34.110Z,1005.65
2016-05-18T03:21:34.112Z,1005.62
2016-05-18T03:22:34.115Z,1005.64
2016-05-18T03:23:34.117Z,1005.64
2016-05-18T03:24:34.137Z,1005.64
2016-05-18T03:25:34.139Z,1005.65
2016-05-18T03:26:34.142Z,1005.63
2016-05-18T03:27:34.145Z,1005.63
2016-05-18T03:28:34.147Z,1005.59
2016-05-18T03:29:34.150Z,1005.61
2016-05-18T03:30:34.168Z,1005.58
2016-05-18T03:31:34.171Z,1005.62
2016-05-18T03:32:34.173Z,1005.56
2016-05-18T03:33:34.176Z,1005.59
2016-05-18T03:34:34.194Z,1005.57
2016-05-18T03:35:34.197Z,1005.6
2016-05-18T03:36:34.200Z,1005.56
2016-05-18T03:37:34.202Z,1005.57
2016-05-18T03:38:34.206Z,1005.51
2016-05-18T03:39:34.222Z,1005.54
2016-05-18T03:40:34.225Z,1005.55
2016-05-18T03:41:34.228Z,1005.53
2016-05-18T03:42:34.231Z,1005.53
2016-05-18T03:43:34.234Z,1005.51
2016-05-18T03:44:34.237Z,1005.52
2016-05-18T03:45:34.255Z,1005.54
2016-05-18T03:46:34.258Z,1005.53
2016-05-18T03:47:34.261Z,1005.49
2016-05-18T03:48:34.263Z,1005.53
2016-05-18T03:49:34.266Z,1005.49
2016-05-18T03:50:34.285Z,1005.49
2016-05-18T03:51:34.287Z,1005.48
2016-05-18T03:52:34.290Z,1005.55
2016-05-18T03:53:34.292Z,1005.47
2016-05-18T03:54:34.296Z,1005.48
2016-05-18T03:55:34.313Z,1005.5
2016-05-18T03:56:34.316Z,1005.43
2016-05-18T03:57:34.319Z,1005.45
2016-05-18T03:58:34.321Z,1005.46
2016-05-18T03:59:34.324Z,1005.43
2016-05-18T04:00:34.342Z,1005.44
2016-05-18T04:01:34.345Z,1005.47
2016-05-18T04:02:34.348Z,1005.43
2016-05-18T04:03:34.351Z,1005.41
2016-05-18T04:04:34.369Z,1005.43
2016-05-18T04:05:34.372Z,1005.43
2016-05-18T04:06:34.375Z,1005.43
2016-05-18T04:07:34.377Z,1005.46
2016-05-18T04:08:34.380Z,1005.42
2016-05-18T04:09:34.398Z,1005.42
2016-05-18T04:10:34.400Z,1005.39
2016-05-18T04:11:34.403Z,1005.39
2016-05-18T04:12:34.406Z,1005.4
2016-05-18T04:13:34.409Z,1005.42
2016-05-18T04:14:34.427Z,1005.41
2016-05-18T04:15:34.430Z,1005.43
2016-05-18T04:16:34.432Z,1005.39
2016-05-18T04:17:34.435Z,1005.4
2016-05-18T04:18:34.438Z,1005.43
2016-05-18T04:19:34.455Z,1005.41
2016-05-18T04:20:34.459Z,1005.42
2016-05-18T04:21:34.461Z,1005.46
2016-05-18T04:22:34.464Z,1005.38
2016-05-18T04:23:34.466Z,1005.42
2016-05-18T04:24:34.485Z,1005.41
2016-05-18T04:25:34.488Z,1005.43
2016-05-18T04:26:34.490Z,1005.39
2016-05-18T04:27:34.494Z,1005.4
2016-05-18T04:28:34.496Z,1005.34
2016-05-18T04:29:34.514Z,1005.39
2016-05-18T04:30:34.564Z,1005.36
2016-05-18T04:31:34.519Z,1005.39
2016-05-18T04:32:34.522Z,1005.38
2016-05-18T04:33:34.525Z,1005.37
2016-05-18T04:34:34.543Z,1005.38
2016-05-18T04:35:34.546Z,1005.34
2016-05-18T04:36:34.549Z,1005.35
2016-05-18T04:37:34.551Z,1005.36
2016-05-18T04:38:34.554Z,1005.41
2016-05-18T04:39:34.573Z,1005.38
2016-05-18T04:40:34.575Z,1005.36
2016-05-18T04:41:34.578Z,1005.38
2016-05-18T04:42:34.580Z,1005.37
2016-05-18T04:43:34.583Z,1005.35
2016-05-18T04:44:34.602Z,1005.35
2016-05-18T04:45:34.605Z,1005.34
2016-05-18T04:46:34.607Z,1005.35
2016-05-18T04:47:34.610Z,1005.33
2016-05-18T04:48:34.612Z,1005.37
2016-05-18T04:49:34.615Z,1005.39
2016-05-18T04:50:34.633Z,1005.36
2016-05-18T04:51:34.636Z,1005.38
2016-05-18T04:52:34.639Z,1005.39
2016-05-18T04:53:34.641Z,1005.37
2016-05-18T04:54:34.660Z,1005.37
2016-05-18T04:55:34.662Z,1005.41
2016-05-18T04:56:34.665Z,1005.39
2016-05-18T04:57:34.667Z,1005.38
2016-05-18T04:58:34.671Z,1005.36
2016-05-18T04:59:34.673Z,1005.35
2016-05-18T05:00:34.691Z,1005.36
2016-05-18T05:01:34.694Z,1005.35
2016-05-18T05:02:34.696Z,1005.36
2016-05-18T05:03:34.699Z,1005.35
2016-05-18T05:04:34.717Z,1005.36
2016-05-18T05:05:34.720Z,1005.37
2016-05-18T05:06:34.723Z,1005.39
2016-05-18T05:07:34.725Z,1005.41
2016-05-18T05:08:34.728Z,1005.4
2016-05-18T05:09:34.732Z,1005.39
2016-05-18T05:10:34.749Z,1005.42
2016-05-18T05:11:34.752Z,1005.41
2016-05-18T05:12:34.755Z,1005.36
2016-05-18T05:13:34.758Z,1005.37
2016-05-18T05:14:34.775Z,1005.37
2016-05-18T05:15:34.794Z,1005.43
2016-05-18T05:16:34.781Z,1005.37
2016-05-18T05:17:34.784Z,1005.35
2016-05-18T05:18:34.787Z,1005.41
2016-05-18T05:19:34.805Z,1005.4
2016-05-18T05:20:34.807Z,1005.38
2016-05-18T05:21:34.810Z,1005.36
2016-05-18T05:22:34.813Z,1005.4
2016-05-18T05:23:34.816Z,1005.36
2016-05-18T05:24:34.835Z,1005.34
2016-05-18T05:25:34.837Z,1005.38
2016-05-18T05:26:34.840Z,1005.4
2016-05-18T05:27:34.842Z,1005.35
2016-05-18T05:28:34.877Z,1005.35
2016-05-18T05:29:34.848Z,1005.4
2016-05-18T05:30:34.865Z,1005.35
2016-05-18T05:31:34.868Z,1005.35
2016-05-18T05:32:34.887Z,1005.38
2016-05-18T05:33:34.874Z,1005.37
2016-05-18T05:34:34.876Z,1005.4
2016-05-18T05:35:34.895Z,1005.42
2016-05-18T05:36:34.897Z,1005.38
2016-05-18T05:37:34.901Z,1005.41
2016-05-18T05:38:34.918Z,1005.36
2016-05-18T05:39:34.921Z,1005.39
2016-05-18T05:40:34.924Z,1005.42
2016-05-18T05:41:34.926Z,1005.44
2016-05-18T05:42:34.929Z,1005.38
2016-05-18T05:43:34.931Z,1005.44
2016-05-18T05:44:34.950Z,1005.4
2016-05-18T05:45:34.953Z,1005.37
2016-05-18T05:46:34.955Z,1005.43
2016-05-18T05:47:34.958Z,1005.41
2016-05-18T05:48:34.961Z,1005.41
2016-05-18T05:49:34.979Z,1005.4
2016-05-18T05:50:34.982Z,1005.4
2016-05-18T05:51:34.985Z,1005.46
2016-05-18T05:52:34.987Z,1005.43
2016-05-18T05:53:35.005Z,1005.44
2016-05-18T05:54:35.008Z,1005.44
2016-05-18T05:55:35.011Z,1005.41
2016-05-18T05:56:35.014Z,1005.48
2016-05-18T05:57:35.017Z,1005.41
2016-05-18T05:58:35.019Z,1005.42
2016-05-18T05:59:35.037Z,1005.39
2016-05-18T06:00:35.040Z,1005.37
2016-05-18T06:01:35.043Z,1005.36
2016-05-18T06:02:35.046Z,1005.34
2016-05-18T06:03:35.048Z,1005.37
2016-05-18T06:04:35.067Z,1005.39
2016-05-18T06:05:35.070Z,1005.38
2016-05-18T06:06:35.072Z,1005.41
2016-05-18T06:07:35.075Z,1005.42
2016-05-18T06:08:35.093Z,1005.43
2016-05-18T06:09:35.095Z,1005.72
2016-05-18T06:10:35.098Z,1005.41
2016-05-18T06:11:35.101Z,1005.52
2016-05-18T06:12:35.119Z,1005.48
2016-05-18T06:13:35.122Z,1005.45
2016-05-18T06:14:35.124Z,1005.47
2016-05-18T06:15:35.127Z,1005.5
2016-05-18T06:16:35.146Z,1005.41
2016-05-18T06:17:35.148Z,1005.5
2016-05-18T06:18:35.150Z,1005.47
2016-05-18T06:19:35.153Z,1005.5
2016-05-18T06:20:35.156Z,1005.53
2016-05-18T06:21:35.175Z,1005.69
2016-05-18T06:22:35.177Z,1005.55
2016-05-18T06:23:35.180Z,1005.73
2016-05-18T06:24:35.183Z,1005.52
2016-05-18T06:25:35.201Z,1005.51
2016-05-18T06:26:35.204Z,1005.53
2016-05-18T06:27:35.207Z,1005.59
2016-05-18T06:28:35.209Z,1005.58
2016-05-18T06:29:35.212Z,1005.53
2016-05-18T06:30:35.230Z,1005.61
2016-05-18T06:31:35.232Z,1005.54
2016-05-18T06:32:35.235Z,1005.62
2016-05-18T06:33:35.254Z,1005.55
2016-05-18T06:34:35.257Z,1005.64
2016-05-18T06:35:36.432Z,1005.69
2016-05-18T06:36:35.262Z,1006.14
2016-05-18T06:37:35.265Z,1005.86
2016-05-18T06:38:35.283Z,1005.73
2016-05-18T06:39:35.317Z,1006.49
2016-05-18T06:40:35.523Z,1006.45
2016-05-18T06:41:35.307Z,1006.48
2016-05-18T06:42:35.309Z,1006.47
2016-05-18T06:43:35.311Z,1006.47
2016-05-18T06:44:35.330Z,1006.48
2016-05-18T06:45:36.348Z,1006.45
2016-05-18T06:46:35.351Z,1006.46
2016-05-18T06:47:35.353Z,1006.4
2016-05-18T06:48:35.357Z,1006.4
2016-05-18T06:49:35.359Z,1006.42
2016-05-18T06:50:36.550Z,1006.4
2016-05-18T06:51:35.381Z,1006.43
2016-05-18T06:52:35.399Z,1006.41
2016-05-18T06:53:35.402Z,1006.07
2016-05-18T06:54:35.405Z,1005.56
2016-05-18T06:55:35.938Z,1005.45
2016-05-18T06:56:35.425Z,1005.49
2016-05-18T06:57:35.428Z,1005.49
2016-05-18T06:58:35.446Z,1005.44
2016-05-18T06:59:35.449Z,1005.44
2016-05-18T07:00:36.296Z,1005.39
2016-05-18T07:01:35.470Z,1005.45
2016-05-18T07:02:35.473Z,1005.49
2016-05-18T07:03:35.491Z,1005.46
2016-05-18T07:04:35.478Z,1005.41
2016-05-18T07:05:36.121Z,1005.38
2016-05-18T07:06:35.499Z,1005.37
2016-05-18T07:07:35.517Z,1005.35
2016-05-18T07:08:35.520Z,1005.36
2016-05-18T07:09:35.523Z,1005.33
2016-05-18T07:10:35.526Z,1005.33
2016-05-18T07:11:35.543Z,1005.4
2016-05-18T07:12:35.546Z,1005.35
2016-05-18T07:13:35.548Z,1005.42
2016-05-18T07:14:35.552Z,1005.44
2016-05-18T07:15:36.101Z,1005.46
2016-05-18T07:16:35.573Z,1005.48
2016-05-18T07:17:35.575Z,1005.42
2016-05-18T07:18:35.578Z,1005.37
2016-05-18T07:19:35.597Z,1005.41
2016-05-18T07:20:35.599Z,1005.45
2016-05-18T07:21:35.617Z,1005.46
2016-05-18T07:22:35.620Z,1005.4
2016-05-18T07:23:35.716Z,1005.38
2016-05-18T07:24:35.625Z,1005.38
2016-05-18T07:25:36.472Z,1005.37
2016-05-18T07:26:35.647Z,1005.36
2016-05-18T07:27:35.649Z,1005.32
2016-05-18T07:28:35.652Z,1005.36
2016-05-18T07:29:35.671Z,1005.35
2016-05-18T07:30:35.674Z,1005.32
2016-05-18T07:31:35.677Z,1005.3
2016-05-18T07:32:35.679Z,1005.24
2016-05-18T07:33:35.696Z,1005.25
2016-05-18T07:34:35.699Z,1005.21
2016-05-18T07:35:36.015Z,1005.2
2016-05-18T07:36:35.705Z,1005.16
2016-05-18T07:37:35.707Z,1005.18
2016-05-18T07:38:35.726Z,1005.14
2016-05-18T07:39:35.728Z,1005.13
2016-05-18T07:40:36.497Z,1005.15
2016-05-18T07:41:35.734Z,1005.16
2016-05-18T07:42:35.846Z,1005.11
2016-05-18T07:43:35.770Z,1005.14
2016-05-18T07:44:35.757Z,1005.13
2016-05-18T07:45:36.229Z,1005.18
2016-05-18T07:46:35.779Z,1005.08
2016-05-18T07:47:35.781Z,1005.06
2016-05-18T07:48:35.784Z,1005.1
2016-05-18T07:49:35.786Z,1005.06
2016-05-18T07:50:36.695Z,1005.1
2016-05-18T07:51:35.808Z,1005.02
2016-05-18T07:52:35.810Z,1005.05
2016-05-18T07:53:35.813Z,1005.02
2016-05-18T07:54:35.816Z,1005
2016-05-18T07:55:35.834Z,1005.01
2016-05-18T07:56:35.836Z,1004.95
2016-05-18T07:57:35.839Z,1004.93
2016-05-18T07:58:35.841Z,1004.93
2016-05-18T07:59:35.861Z,1004.98
2016-05-18T08:00:36.536Z,1004.9
2016-05-18T08:01:35.866Z,1004.92
2016-05-18T08:02:35.869Z,1004.93
2016-05-18T08:03:35.887Z,1004.92
2016-05-18T08:04:35.890Z,1004.95
2016-05-18T08:05:36.064Z,1005.01
2016-05-18T08:06:35.895Z,1004.96
2016-05-18T08:07:35.913Z,1004.97
2016-05-18T08:08:35.979Z,1004.97
2016-05-18T08:09:35.919Z,1004.94
2016-05-18T08:10:36.968Z,1004.89
2016-05-18T08:11:35.940Z,1004.86
2016-05-18T08:12:35.942Z,1004.86
2016-05-18T08:13:35.945Z,1004.86
2016-05-18T08:14:35.948Z,1004.91
2016-05-18T08:15:37.215Z,1004.91
2016-05-18T08:16:35.968Z,1004.91
2016-05-18T08:17:35.970Z,1004.88
2016-05-18T08:18:35.989Z,1004.93
2016-05-18T08:19:35.992Z,1004.91
2016-05-18T08:20:35.995Z,1004.92
2016-05-18T08:21:35.998Z,1004.93
2016-05-18T08:22:36.017Z,1004.94
2016-05-18T08:23:36.097Z,1004.89
2016-05-18T08:24:36.022Z,1004.93
2016-05-18T08:25:36.025Z,1004.88
2016-05-18T08:26:36.042Z,1004.86
2016-05-18T08:27:36.055Z,1004.78
2016-05-18T08:28:36.101Z,1004.84
2016-05-18T08:29:36.161Z,1004.8
2016-05-18T08:30:37.550Z,1004.88
2016-05-18T08:31:36.251Z,1004.8
2016-05-18T08:32:36.289Z,1004.77
2016-05-18T08:33:36.323Z,1004.78
2016-05-18T08:34:36.342Z,1004.76
2016-05-18T08:35:37.155Z,1004.73
2016-05-18T08:36:36.393Z,1004.67
2016-05-18T08:37:36.408Z,1004.68
2016-05-18T08:38:36.416Z,1004.74
2016-05-18T08:39:36.424Z,1004.77
2016-05-18T08:40:36.963Z,1004.72
2016-05-18T08:41:36.456Z,1004.75
2016-05-18T08:42:36.464Z,1004.68
2016-05-18T08:43:36.469Z,1004.76
2016-05-18T08:44:36.489Z,1004.69
2016-05-18T08:45:36.526Z,1004.64
2016-05-18T08:46:36.499Z,1004.74
2016-05-18T08:47:36.519Z,1004.68
2016-05-18T08:48:36.523Z,1004.72
2016-05-18T08:49:36.526Z,1004.68
2016-05-18T08:50:36.529Z,1004.7
2016-05-18T08:51:36.549Z,1004.69
2016-05-18T08:52:36.552Z,1004.72
2016-05-18T08:53:36.992Z,1004.72
2016-05-18T08:54:36.558Z,1004.73
2016-05-18T08:55:36.795Z,1004.69
2016-05-18T08:56:36.578Z,1004.67
2016-05-18T08:57:36.581Z,1004.67
2016-05-18T08:58:36.599Z,1004.59
2016-05-18T08:59:36.602Z,1004.61
2016-05-18T09:00:37.839Z,1004.63
2016-05-18T09:01:36.607Z,1004.61
2016-05-18T09:02:36.626Z,1004.63
2016-05-18T09:03:36.629Z,1004.59
2016-05-18T09:04:36.632Z,1004.61
2016-05-18T09:05:36.634Z,1004.62
2016-05-18T09:06:36.652Z,1004.6
2016-05-18T09:07:36.654Z,1004.55
2016-05-18T09:08:36.657Z,1004.53
2016-05-18T09:09:36.676Z,1004.52
2016-05-18T09:10:36.679Z,1004.53
2016-05-18T09:11:36.681Z,1004.51
2016-05-18T09:12:36.699Z,1004.48
2016-05-18T09:13:36.702Z,1004.47
2016-05-18T09:14:36.704Z,1004.54
2016-05-18T09:15:37.145Z,1004.51
2016-05-18T09:16:36.710Z,1004.48
2016-05-18T09:17:36.729Z,1004.49
2016-05-18T09:18:36.731Z,1004.46
2016-05-18T09:19:36.750Z,1004.43
2016-05-18T09:20:38.002Z,1004.42
2016-05-18T09:21:36.755Z,1004.38
2016-05-18T09:22:36.758Z,1004.45
2016-05-18T09:23:37.354Z,1004.44
2016-05-18T09:24:36.778Z,1004.48
2016-05-18T09:25:36.781Z,1004.41
2016-05-18T09:26:36.784Z,1004.43
2016-05-18T09:27:36.786Z,1004.4
2016-05-18T09:28:36.805Z,1004.5
2016-05-18T09:29:36.807Z,1004.45
2016-05-18T09:30:36.810Z,1004.38
2016-05-18T09:31:36.829Z,1004.29
2016-05-18T09:32:36.832Z,1004.3
2016-05-18T09:33:36.834Z,1004.26
2016-05-18T09:34:36.837Z,1004.24
2016-05-18T09:35:36.855Z,1004.22
2016-05-18T09:36:36.857Z,1004.21
2016-05-18T09:37:36.860Z,1004.25
2016-05-18T09:38:36.988Z,1004.27
2016-05-18T09:39:36.882Z,1004.19
2016-05-18T09:40:36.884Z,1004.23
2016-05-18T09:41:36.887Z,1004.24
2016-05-18T09:42:36.904Z,1004.23
2016-05-18T09:43:36.907Z,1004.16
2016-05-18T09:44:36.910Z,1004.16
2016-05-18T09:45:36.929Z,1004.21
2016-05-18T09:46:36.931Z,1004.16
2016-05-18T09:47:36.934Z,1004.05
2016-05-18T09:48:36.937Z,1004.08
2016-05-18T09:49:36.939Z,1004.14
2016-05-18T09:50:36.958Z,1004.1
2016-05-18T09:51:36.961Z,1004.15
2016-05-18T09:52:36.964Z,1004.03
2016-05-18T09:53:37.341Z,1004.04
2016-05-18T09:54:36.984Z,1004.02
2016-05-18T09:55:36.987Z,1003.92
2016-05-18T09:56:37.006Z,1003.92
2016-05-18T09:57:36.992Z,1003.88
2016-05-18T09:58:37.011Z,1003.93
2016-05-18T09:59:37.013Z,1003.94
2016-05-18T10:00:37.016Z,1004.05
2016-05-18T10:01:37.035Z,1003.96
2016-05-18T10:02:37.038Z,1003.86
2016-05-18T10:03:37.040Z,1003.85
2016-05-18T10:04:37.043Z,1003.81
2016-05-18T10:05:37.061Z,1003.82
2016-05-18T10:06:37.063Z,1003.78
2016-05-18T10:07:37.066Z,1003.76
2016-05-18T10:08:37.069Z,1003.78
2016-05-18T10:09:37.087Z,1003.8
2016-05-18T10:10:37.090Z,1003.92
2016-05-18T10:11:37.093Z,1003.83
2016-05-18T10:12:37.095Z,1003.71
2016-05-18T10:13:37.113Z,1003.77
2016-05-18T10:14:37.116Z,1003.81
2016-05-18T10:15:37.118Z,1003.86
2016-05-18T10:16:37.137Z,1003.69
2016-05-18T10:17:37.140Z,1003.67
2016-05-18T10:18:37.143Z,1003.66
2016-05-18T10:19:37.145Z,1003.56
2016-05-18T10:20:37.164Z,1003.66
2016-05-18T10:21:37.167Z,1003.67
2016-05-18T10:22:37.169Z,1003.66
2016-05-18T10:23:37.406Z,1003.64
2016-05-18T10:24:37.190Z,1003.58
2016-05-18T10:25:37.192Z,1003.59
2016-05-18T10:26:37.195Z,1003.54
2016-05-18T10:27:37.198Z,1003.49
2016-05-18T10:28:37.216Z,1003.54
2016-05-18T10:29:37.219Z,1003.55
2016-05-18T10:30:37.222Z,1003.51
2016-05-18T10:31:37.241Z,1003.49
2016-05-18T10:32:37.243Z,1003.44
2016-05-18T10:33:37.246Z,1003.44
2016-05-18T10:34:37.249Z,1003.4
2016-05-18T10:35:37.252Z,1003.47
2016-05-18T10:36:37.269Z,1003.52
2016-05-18T10:37:37.271Z,1003.5
2016-05-18T10:38:37.274Z,1003.44
2016-05-18T10:39:37.277Z,1003.45
2016-05-18T10:40:37.296Z,1003.55
2016-05-18T10:41:37.299Z,1003.47
2016-05-18T10:42:37.316Z,1003.52
2016-05-18T10:43:37.304Z,1003.45
2016-05-18T10:44:37.322Z,1003.44
2016-05-18T10:45:37.324Z,1003.44
2016-05-18T10:46:37.327Z,1003.42
2016-05-18T10:47:37.346Z,1003.46
2016-05-18T10:48:37.349Z,1003.44
2016-05-18T10:49:37.351Z,1003.41
2016-05-18T10:50:37.353Z,1003.42
2016-05-18T10:51:37.357Z,1003.44
2016-05-18T10:52:37.375Z,1003.43
2016-05-18T10:53:37.378Z,1003.42
2016-05-18T10:54:37.381Z,1003.43
2016-05-18T10:55:37.383Z,1003.38
2016-05-18T10:56:37.386Z,1003.42
2016-05-18T10:57:37.404Z,1003.4
2016-05-18T10:58:37.406Z,1003.5
2016-05-18T10:59:37.409Z,1003.41
2016-05-18T11:00:37.412Z,1003.4
2016-05-18T11:01:37.415Z,1003.48
2016-05-18T11:02:37.433Z,1003.42
2016-05-18T11:03:37.436Z,1003.43
2016-05-18T11:04:37.438Z,1003.46
2016-05-18T11:05:37.457Z,1003.5
2016-05-18T11:06:37.460Z,1003.4
2016-05-18T11:07:37.463Z,1003.43
2016-05-18T11:08:37.730Z,1003.45
2016-05-18T11:09:37.482Z,1003.41
2016-05-18T11:10:37.486Z,1003.38
2016-05-18T11:11:37.488Z,1003.38
2016-05-18T11:12:37.491Z,1003.33
2016-05-18T11:13:37.494Z,1003.32
2016-05-18T11:14:37.512Z,1003.3
2016-05-18T11:15:37.514Z,1003.3
2016-05-18T11:16:37.518Z,1003.3
2016-05-18T11:17:37.535Z,1003.25
2016-05-18T11:18:37.538Z,1003.27
2016-05-18T11:19:37.540Z,1003.23
2016-05-18T11:20:37.543Z,1003.24
2016-05-18T11:21:37.546Z,1003.25
2016-05-18T11:22:37.565Z,1003.29
2016-05-18T11:23:37.864Z,1003.23
2016-05-18T11:24:37.586Z,1003.2
2016-05-18T11:25:37.573Z,1003.22
2016-05-18T11:26:37.591Z,1003.2
2016-05-18T11:27:37.595Z,1003.19
2016-05-18T11:28:37.597Z,1003.15
2016-05-18T11:29:37.599Z,1003.13
2016-05-18T11:30:37.617Z,1003.14
2016-05-18T11:31:37.620Z,1003.13
2016-05-18T11:32:37.622Z,1003.15
2016-05-18T11:33:37.625Z,1003.13
2016-05-18T11:34:37.644Z,1003.08
2016-05-18T11:35:37.647Z,1003.1
2016-05-18T11:36:37.649Z,1003.09
2016-05-18T11:37:37.668Z,1003.07
2016-05-18T11:38:37.671Z,1003.08
2016-05-18T11:39:37.673Z,1003.04
2016-05-18T11:40:37.676Z,1003.05
2016-05-18T11:41:37.694Z,1003.01
2016-05-18T11:42:37.697Z,1003.04
2016-05-18T11:43:37.699Z,1003.02
2016-05-18T11:44:37.702Z,1003.03
2016-05-18T11:45:37.720Z,1002.99
2016-05-18T11:46:37.723Z,1003.02
2016-05-18T11:47:37.726Z,1002.97
2016-05-18T11:48:37.728Z,1002.92
2016-05-18T11:49:37.732Z,1002.92
2016-05-18T11:50:37.734Z,1002.91
2016-05-18T11:51:37.751Z,1002.91
2016-05-18T11:52:37.755Z,1002.88
2016-05-18T11:53:37.757Z,1002.88
2016-05-18T11:54:37.776Z,1002.82
2016-05-18T11:55:37.778Z,1002.8
2016-05-18T11:56:37.781Z,1002.81
2016-05-18T11:57:37.784Z,1002.81
2016-05-18T11:58:37.802Z,1002.87
2016-05-18T11:59:37.805Z,1002.81
2016-05-18T12:00:37.808Z,1002.85
2016-05-18T12:01:37.825Z,1002.87
2016-05-18T12:02:37.828Z,1002.85
2016-05-18T12:03:37.831Z,1002.86
2016-05-18T12:04:37.834Z,1002.85
2016-05-18T12:05:37.836Z,1002.82
2016-05-18T12:06:37.855Z,1002.82
2016-05-18T12:07:37.858Z,1002.79
2016-05-18T12:08:37.860Z,1002.8